createdAt,value
2018-02-15T00:00:20.952Z,82.40
2018-02-15T00:02:49.202Z,81.70
2018-02-15T00:07:47.240Z,81.70
2018-02-15T00:10:15.463Z,80.90
2018-02-15T00:15:20.931Z,81.80
2018-02-15T00:17:49.939Z,81.90
2018-02-15T00:22:49.635Z,81.50
2018-02-15T00:25:17.888Z,81.80
2018-02-15T00:27:46.123Z,81.20
2018-02-15T00:32:45.020Z,83.30
2018-02-15T00:35:13.263Z,81.10
2018-02-15T00:37:43.344Z,81.80
2018-02-15T00:40:11.575Z,83.90
2018-02-15T00:42:41.320Z,83.70
2018-02-15T00:45:10.491Z,82.10
2018-02-15T00:47:39.784Z,85.40
2018-02-15T00:50:08.020Z,82.50
2018-02-15T00:52:36.660Z,80.60
2018-02-15T00:55:05.291Z,81.60
2018-02-15T00:57:33.535Z,82.10
2018-02-15T01:05:01.668Z,82.70
2018-02-15T01:07:30.373Z,80.60
2018-02-15T01:09:58.656Z,82.20
2018-02-15T01:12:28.020Z,86.20
2018-02-15T01:14:56.906Z,83.10
2018-02-15T01:17:25.139Z,81.20
2018-02-15T01:19:54.512Z,82.40
2018-02-15T01:22:23.850Z,84.50
2018-02-15T01:24:52.855Z,81.80
2018-02-15T01:27:21.483Z,81.20
2018-02-15T01:29:50.604Z,80.80
2018-02-15T01:32:19.244Z,79.80
2018-02-15T01:34:47.497Z,79.70
2018-02-15T01:39:45.396Z,81.20
2018-02-15T01:42:13.638Z,80.30
2018-02-15T01:44:42.151Z,80.60
2018-02-15T01:47:11.531Z,80.40
2018-02-15T01:50:09.932Z,80.30
2018-02-15T01:52:38.928Z,83.60
2018-02-15T01:55:07.168Z,81.10
2018-02-15T01:57:36.967Z,79.50
2018-02-15T02:00:05.206Z,80.30
2018-02-15T02:02:34.943Z,83.10
2018-02-15T02:05:04.919Z,81.60
2018-02-15T02:07:33.159Z,81.30
2018-02-15T02:10:02.552Z,86.40
2018-02-15T02:12:31.936Z,82.50
2018-02-15T02:15:01.696Z,80.30
2018-02-15T02:17:29.940Z,80.70
2018-02-15T02:19:59.940Z,79.50
2018-02-15T02:22:28.181Z,80.80
2018-02-15T02:24:57.941Z,79.00
2018-02-15T02:27:26.315Z,79.30
2018-02-15T02:29:54.552Z,81.50
2018-02-15T02:32:23.919Z,79.20
2018-02-15T02:34:52.391Z,79.30
2018-02-15T02:37:20.623Z,78.40
2018-02-15T02:39:48.865Z,78.70
2018-02-15T02:44:48.138Z,80.60
2018-02-15T02:47:17.132Z,80.80
2018-02-15T02:49:45.848Z,80.00
2018-02-15T02:52:16.601Z,84.10
2018-02-15T02:54:44.843Z,80.20
2018-02-15T02:57:13.276Z,79.60
2018-02-15T02:59:43.011Z,83.70
2018-02-15T03:02:12.006Z,83.40
2018-02-15T03:04:40.639Z,82.60
2018-02-15T03:09:38.332Z,87.50
2018-02-15T03:14:36.439Z,88.70
2018-02-15T03:17:04.696Z,90.40
2018-02-15T03:19:37.236Z,92.60
2018-02-15T03:22:06.603Z,94.50
2018-02-15T03:24:35.980Z,96.40
2018-02-15T03:27:05.096Z,99.90
2018-02-15T03:29:34.472Z,99.90
2018-02-15T03:32:02.722Z,99.90
2018-02-15T03:34:33.412Z,99.90
2018-02-15T03:37:02.800Z,99.90
2018-02-15T03:39:31.048Z,99.90
2018-02-15T03:41:59.597Z,99.90
2018-02-15T03:44:27.831Z,99.90
2018-02-15T03:51:55.335Z,99.90
2018-02-15T03:54:24.664Z,99.90
2018-02-15T03:56:53.956Z,99.90
2018-02-15T03:59:22.579Z,99.90
2018-02-15T04:01:51.955Z,99.90
2018-02-15T04:04:20.791Z,99.90
2018-02-15T04:09:18.492Z,99.90
2018-02-15T04:11:47.150Z,99.90
2018-02-15T04:14:16.148Z,99.90
2018-02-15T04:16:44.379Z,99.90
2018-02-15T04:19:12.787Z,99.90
2018-02-15T04:21:41.016Z,99.90
2018-02-15T04:24:09.235Z,99.90
2018-02-15T04:26:38.083Z,99.90
2018-02-15T04:29:07.080Z,99.90
2018-02-15T04:36:35.168Z,99.90
2018-02-15T04:39:03.533Z,99.90
2018-02-15T04:41:32.546Z,99.90
2018-02-15T04:44:01.539Z,99.90
2018-02-15T04:46:29.788Z,99.90
2018-02-15T04:48:58.329Z,99.90
2018-02-15T04:51:28.088Z,99.90
2018-02-15T04:56:27.235Z,99.90
2018-02-15T04:58:56.964Z,99.90
2018-02-15T05:01:26.328Z,99.90
2018-02-15T05:03:54.797Z,99.90
2018-02-15T05:08:52.867Z,99.90
2018-02-15T05:11:22.167Z,99.90
2018-02-15T05:13:50.787Z,99.90
2018-02-15T05:16:19.796Z,99.90
2018-02-15T05:18:49.449Z,99.90
2018-02-15T05:21:17.678Z,99.90
2018-02-15T05:23:45.903Z,99.90
2018-02-15T05:26:15.468Z,99.90
2018-02-15T05:28:44.464Z,99.90
2018-02-15T05:31:14.540Z,99.90
2018-02-15T05:33:43.388Z,99.90
2018-02-15T05:36:12.384Z,99.90
2018-02-15T05:38:40.644Z,99.90
2018-02-15T05:41:09.129Z,99.90
2018-02-15T05:43:38.133Z,99.90
2018-02-15T05:46:06.772Z,99.90
2018-02-15T05:48:35.476Z,99.90
2018-02-15T05:51:04.857Z,99.90
2018-02-15T05:53:33.079Z,99.90
2018-02-15T05:56:03.987Z,99.90
2018-02-15T05:58:33.319Z,99.90
2018-02-15T06:01:03.020Z,99.90
2018-02-15T06:03:31.924Z,99.90
2018-02-15T06:08:29.615Z,99.90
2018-02-15T06:10:58.055Z,99.90
2018-02-15T06:13:26.680Z,99.90
2018-02-15T06:15:55.764Z,99.90
2018-02-15T06:18:24.408Z,99.90
2018-02-15T06:20:52.637Z,99.90
2018-02-15T06:23:20.868Z,99.90
2018-02-15T06:25:49.614Z,99.90
2018-02-15T06:28:18.975Z,99.90
2018-02-15T06:30:48.707Z,99.90
2018-02-15T06:33:18.816Z,99.90
2018-02-15T06:35:48.556Z,99.90
2018-02-15T06:40:48.656Z,99.90
2018-02-15T06:43:16.887Z,99.90
2018-02-15T06:45:47.443Z,99.90
2018-02-15T06:48:15.676Z,99.90
2018-02-15T06:50:43.907Z,99.90
2018-02-15T06:53:12.507Z,99.90
2018-02-15T06:55:42.247Z,99.90
2018-02-15T06:58:12.292Z,99.90
2018-02-15T07:03:10.198Z,99.90
2018-02-15T07:05:41.251Z,99.90
2018-02-15T07:10:40.202Z,99.90
2018-02-15T07:13:08.668Z,99.90
2018-02-15T07:15:36.910Z,99.90
2018-02-15T07:18:05.155Z,99.90
2018-02-15T07:20:35.540Z,99.90
2018-02-15T07:23:04.561Z,99.90
2018-02-15T07:25:32.807Z,99.90
2018-02-15T07:28:01.635Z,99.90
2018-02-15T07:30:30.999Z,99.90
2018-02-15T07:32:59.228Z,99.90
2018-02-15T07:35:28.089Z,99.90
2018-02-15T07:40:25.799Z,99.90
2018-02-15T07:42:55.667Z,99.90
2018-02-15T07:45:23.906Z,99.90
2018-02-15T07:47:52.135Z,99.90
2018-02-15T07:50:23.269Z,99.90
2018-02-15T07:55:20.963Z,99.90
2018-02-15T07:57:50.279Z,99.90
2018-02-15T08:00:18.907Z,99.90
2018-02-15T08:02:47.642Z,99.90
2018-02-15T08:05:16.932Z,99.90
2018-02-15T08:07:46.668Z,99.90
2018-02-15T08:10:15.663Z,99.90
2018-02-15T08:12:45.095Z,99.90
2018-02-15T08:15:13.328Z,99.90
2018-02-15T08:17:41.575Z,99.90
2018-02-15T08:20:10.863Z,99.90
2018-02-15T08:22:39.497Z,99.90
2018-02-15T08:25:07.744Z,99.90
2018-02-15T08:30:06.690Z,99.90
2018-02-15T08:32:35.704Z,99.90
2018-02-15T08:35:04.513Z,99.90
2018-02-15T08:37:32.745Z,99.90
2018-02-15T08:40:02.112Z,99.90
2018-02-15T08:42:31.087Z,99.90
2018-02-15T08:47:28.828Z,99.90
2018-02-15T08:49:57.843Z,99.90
2018-02-15T08:52:26.844Z,99.90
2018-02-15T08:54:55.862Z,99.90
2018-02-15T08:57:25.436Z,99.90
2018-02-15T08:59:53.675Z,99.90
2018-02-15T09:04:52.882Z,99.90
2018-02-15T09:07:21.508Z,99.90
2018-02-15T09:09:49.746Z,99.90
2018-02-15T09:12:18.200Z,99.90
2018-02-15T09:14:46.427Z,99.90
2018-02-15T09:17:14.663Z,99.90
2018-02-15T09:19:43.200Z,99.90
2018-02-15T09:22:12.204Z,99.90
2018-02-15T09:24:40.437Z,99.90
2018-02-15T09:27:09.686Z,99.90
2018-02-15T09:29:37.935Z,99.90
2018-02-15T09:32:06.576Z,99.90
2018-02-15T09:34:35.703Z,99.90
2018-02-15T09:37:03.932Z,99.90
2018-02-15T09:39:32.159Z,99.90
2018-02-15T09:42:02.323Z,99.90
2018-02-15T09:44:30.956Z,99.90
2018-02-15T09:46:59.188Z,99.90
2018-02-15T09:49:28.370Z,99.90
2018-02-15T09:51:56.600Z,99.90
2018-02-15T09:54:26.381Z,99.90
2018-02-15T09:56:55.123Z,99.90
2018-02-15T09:59:24.151Z,99.90
2018-02-15T10:01:52.387Z,99.90
2018-02-15T10:04:20.829Z,99.90
2018-02-15T10:06:51.167Z,99.90
2018-02-15T10:09:21.188Z,99.90
2018-02-15T10:11:50.923Z,99.90
2018-02-15T10:14:19.163Z,99.90
2018-02-15T10:19:18.468Z,99.90
2018-02-15T10:21:46.704Z,99.90
2018-02-15T10:24:15.243Z,99.90
2018-02-15T10:26:43.483Z,99.90
2018-02-15T10:29:11.708Z,99.90
2018-02-15T10:31:40.892Z,99.90
2018-02-15T10:34:09.141Z,99.90
2018-02-15T10:39:09.684Z,99.90
2018-02-15T10:41:37.925Z,99.90
2018-02-15T10:44:06.172Z,99.90
2018-02-15T10:46:34.682Z,99.90
2018-02-15T10:49:04.050Z,99.90
2018-02-15T10:51:32.292Z,99.90
2018-02-15T10:56:30.475Z,99.90
2018-02-15T11:04:04.548Z,99.90
2018-02-15T11:06:33.551Z,99.90
2018-02-15T11:11:33.105Z,99.90
2018-02-15T11:14:02.104Z,99.90
2018-02-15T11:16:31.611Z,99.90
2018-02-15T11:18:59.844Z,99.90
2018-02-15T11:21:28.071Z,99.90
2018-02-15T11:23:56.570Z,99.90
2018-02-15T11:31:24.816Z,99.90
2018-02-15T11:33:53.432Z,99.90
2018-02-15T11:36:22.316Z,99.90
2018-02-15T11:41:27.129Z,99.90
2018-02-15T11:43:55.375Z,99.90
2018-02-15T11:46:25.133Z,99.90
2018-02-15T11:48:54.804Z,99.90
2018-02-15T11:51:24.585Z,99.90
2018-02-15T11:53:53.624Z,99.90
2018-02-15T11:56:22.731Z,99.90
2018-02-15T11:58:50.935Z,99.90
2018-02-15T12:01:19.935Z,99.90
2018-02-15T12:03:48.787Z,99.90
2018-02-15T12:08:46.483Z,99.90
2018-02-15T12:11:16.668Z,99.90
2018-02-15T12:13:45.667Z,99.90
2018-02-15T12:16:14.682Z,99.90
2018-02-15T12:18:43.958Z,99.90
2018-02-15T12:21:12.246Z,99.90
2018-02-15T12:26:10.580Z,99.90
2018-02-15T12:28:38.816Z,99.90
2018-02-15T12:31:07.052Z,99.90
2018-02-15T12:33:35.428Z,99.90
2018-02-15T12:36:04.796Z,99.90
2018-02-15T12:38:33.800Z,99.90
2018-02-15T12:41:04.591Z,99.90
2018-02-15T12:43:32.828Z,99.90
2018-02-15T12:46:01.064Z,99.90
2018-02-15T12:48:30.925Z,99.90
2018-02-15T12:50:59.570Z,99.90
2018-02-15T12:53:27.819Z,99.90
2018-02-15T12:55:56.780Z,99.90
2018-02-15T12:58:25.036Z,99.90
2018-02-15T13:00:54.077Z,99.90
2018-02-15T13:03:24.452Z,99.90
2018-02-15T13:05:52.683Z,99.90
2018-02-15T13:08:20.912Z,99.90
2018-02-15T13:13:28.754Z,99.90
2018-02-15T13:16:08.800Z,99.90
2018-02-15T13:18:38.144Z,99.90
2018-02-15T13:21:07.511Z,99.90
2018-02-15T13:23:35.735Z,99.90
2018-02-15T13:28:38.143Z,99.90
2018-02-15T13:33:37.276Z,99.90
2018-02-15T13:36:05.507Z,99.90
2018-02-15T13:38:34.047Z,99.90
2018-02-15T13:43:31.739Z,99.90
2018-02-15T13:46:01.355Z,99.90
2018-02-15T13:48:30.348Z,99.90
2018-02-15T13:50:58.576Z,99.90
2018-02-15T13:53:27.463Z,99.90
2018-02-15T13:55:56.088Z,99.90
2018-02-15T13:58:24.327Z,99.90
2018-02-15T14:00:53.174Z,99.90
2018-02-15T14:05:50.855Z,99.90
2018-02-15T14:08:19.327Z,99.90
2018-02-15T14:10:49.067Z,99.90
2018-02-15T14:13:17.300Z,99.90
2018-02-15T14:15:46.364Z,99.90
2018-02-15T14:18:15.367Z,99.90
2018-02-15T14:20:44.377Z,99.90
2018-02-15T14:23:14.684Z,99.90
2018-02-15T14:25:43.687Z,99.90
2018-02-15T14:28:11.916Z,99.90
2018-02-15T14:30:40.483Z,99.90
2018-02-15T14:33:09.839Z,99.90
2018-02-15T14:35:38.076Z,99.90
2018-02-15T14:38:07.244Z,99.90
2018-02-15T14:40:36.231Z,99.90
2018-02-15T14:43:04.463Z,99.90
2018-02-15T14:45:32.975Z,99.90
2018-02-15T14:48:01.620Z,99.90
2018-02-15T14:50:30.622Z,99.90
2018-02-15T14:55:33.264Z,99.90
2018-02-15T14:58:03.012Z,99.90
2018-02-15T15:03:01.560Z,99.90
2018-02-15T15:05:29.809Z,99.90
2018-02-15T15:07:58.052Z,99.90
2018-02-15T15:10:28.106Z,99.90
2018-02-15T15:12:56.342Z,99.90
2018-02-15T15:15:24.583Z,99.90
2018-02-15T15:17:54.049Z,99.90
2018-02-15T15:20:22.300Z,99.90
2018-02-15T15:22:50.529Z,99.90
2018-02-15T15:25:21.076Z,99.90
2018-02-15T15:27:49.300Z,99.90
2018-02-15T15:32:49.693Z,99.90
2018-02-15T15:35:18.697Z,99.90
2018-02-15T15:37:47.108Z,99.90
2018-02-15T15:40:17.859Z,99.90
2018-02-15T15:42:47.219Z,99.90
2018-02-15T15:47:45.664Z,99.90
2018-02-15T15:50:15.395Z,99.90
2018-02-15T15:52:46.472Z,99.90
2018-02-15T15:55:16.278Z,99.90
2018-02-15T15:57:44.568Z,99.90
2018-02-15T16:00:13.309Z,99.90
2018-02-15T16:02:41.927Z,99.90
2018-02-15T16:07:41.131Z,99.90
2018-02-15T16:10:10.884Z,99.90
2018-02-15T16:12:39.104Z,99.90
2018-02-15T16:15:07.963Z,99.90
2018-02-15T16:17:36.583Z,99.90
2018-02-15T16:20:05.220Z,99.90
2018-02-15T16:22:33.991Z,99.90
2018-02-15T16:25:03.004Z,99.90
2018-02-15T16:27:32.020Z,99.90
2018-02-15T16:30:02.568Z,99.90
2018-02-15T16:32:31.204Z,99.90
2018-02-15T16:34:59.444Z,99.90
2018-02-15T16:37:29.307Z,99.90
2018-02-15T16:39:57.564Z,99.90
2018-02-15T16:42:25.804Z,99.90
2018-02-15T16:47:24.894Z,99.90
2018-02-15T16:49:54.285Z,99.90
2018-02-15T16:52:23.105Z,99.90
2018-02-15T16:54:51.315Z,99.90
2018-02-15T16:57:21.056Z,99.90
2018-02-15T16:59:50.212Z,99.90
2018-02-15T17:02:19.207Z,99.90
2018-02-15T17:04:47.436Z,99.90
2018-02-15T17:07:17.236Z,99.90
2018-02-15T17:09:45.865Z,99.90
2018-02-15T17:12:14.087Z,99.90
2018-02-15T17:14:43.248Z,99.90
2018-02-15T17:17:11.547Z,99.90
2018-02-15T17:19:39.768Z,99.90
2018-02-15T17:24:42.736Z,99.90
2018-02-15T17:27:11.876Z,99.90
2018-02-15T17:29:40.087Z,99.90
2018-02-15T17:34:39.879Z,99.90
2018-02-15T17:37:09.038Z,99.90
2018-02-15T17:42:08.231Z,99.90
2018-02-15T17:44:36.500Z,99.90
2018-02-15T17:47:05.100Z,99.90
2018-02-15T17:49:33.347Z,99.90
2018-02-15T17:54:31.358Z,99.90
2018-02-15T17:56:59.627Z,99.90
2018-02-15T17:59:29.371Z,99.90
2018-02-15T18:04:31.788Z,99.90
2018-02-15T18:07:00.037Z,99.90
2018-02-15T18:09:29.144Z,99.90
2018-02-15T18:14:28.003Z,99.90
2018-02-15T18:19:32.625Z,99.90
2018-02-15T18:24:30.732Z,99.90
2018-02-15T18:26:59.287Z,99.90
2018-02-15T18:29:27.523Z,99.90
2018-02-15T18:31:56.519Z,99.90
2018-02-15T18:34:25.619Z,99.90
2018-02-15T18:36:53.852Z,99.90
2018-02-15T18:39:23.587Z,99.90
2018-02-15T18:41:52.259Z,99.90
2018-02-15T18:44:21.264Z,99.90
2018-02-15T18:49:19.743Z,99.90
2018-02-15T18:51:49.488Z,99.90
2018-02-15T18:54:18.483Z,99.90
2018-02-15T18:56:47.071Z,99.90
2018-02-15T18:59:16.816Z,99.90
2018-02-15T19:01:46.552Z,99.90
2018-02-15T19:04:15.191Z,99.90
2018-02-15T19:06:44.188Z,99.90
2018-02-15T19:09:12.424Z,99.90
2018-02-15T19:11:41.068Z,99.90
2018-02-15T19:14:09.308Z,99.90
2018-02-15T19:16:37.552Z,99.90
2018-02-15T19:19:07.157Z,99.90
2018-02-15T19:21:35.395Z,99.90
2018-02-15T19:24:03.638Z,99.90
2018-02-15T19:29:05.995Z,99.90
2018-02-15T19:31:35.743Z,99.90
2018-02-15T19:34:06.156Z,99.90
2018-02-15T19:36:34.400Z,99.90
2018-02-15T19:39:04.150Z,99.90
2018-02-15T19:41:33.285Z,99.90
2018-02-15T19:44:02.670Z,99.90
2018-02-15T19:46:30.921Z,99.90
2018-02-15T19:49:02.077Z,99.90
2018-02-15T19:51:30.323Z,99.90
2018-02-15T19:53:58.560Z,99.90
2018-02-15T19:56:28.867Z,99.90
2018-02-15T19:58:57.100Z,99.90
2018-02-15T20:01:26.837Z,99.90
2018-02-15T20:03:56.784Z,99.90
2018-02-15T20:06:25.407Z,99.90
2018-02-15T20:08:54.775Z,99.90
2018-02-15T20:11:23.731Z,99.90
2018-02-15T20:13:53.103Z,99.90
2018-02-15T20:16:21.328Z,99.90
2018-02-15T20:18:50.611Z,99.90
2018-02-15T20:21:19.623Z,99.90
2018-02-15T20:23:47.864Z,99.90
2018-02-15T20:26:23.012Z,99.90
2018-02-15T20:28:52.227Z,99.90
2018-02-15T20:31:20.467Z,99.90
2018-02-15T20:33:48.789Z,99.90
2018-02-15T20:36:17.017Z,99.90
2018-02-15T20:38:51.552Z,99.90
2018-02-15T20:41:20.579Z,99.90
2018-02-15T20:43:49.188Z,99.90
2018-02-15T20:48:47.583Z,99.90
2018-02-15T20:51:21.771Z,99.90
2018-02-15T20:53:56.536Z,99.90
2018-02-15T20:58:56.108Z,99.90
2018-02-15T21:03:54.900Z,99.90
2018-02-15T21:06:23.520Z,99.90
2018-02-15T21:08:51.753Z,99.90
2018-02-15T21:11:21.807Z,99.90
2018-02-15T21:13:50.804Z,99.90
2018-02-15T21:16:20.552Z,99.90
2018-02-15T21:18:51.215Z,99.90
2018-02-15T21:21:20.225Z,99.90
2018-02-15T21:26:18.597Z,99.90
2018-02-15T21:28:46.823Z,99.90
2018-02-15T21:31:15.332Z,99.90
2018-02-15T21:33:44.407Z,99.90
2018-02-15T21:36:13.411Z,99.90
2018-02-15T21:38:41.635Z,99.90
2018-02-15T21:43:41.100Z,99.90
2018-02-15T21:46:10.092Z,99.90
2018-02-15T21:48:38.739Z,99.90
2018-02-15T21:51:07.368Z,99.90
2018-02-15T21:53:35.607Z,99.90
2018-02-15T21:56:04.016Z,99.90
2018-02-15T21:58:32.243Z,99.90
2018-02-15T22:01:01.995Z,99.90
2018-02-15T22:03:30.709Z,99.90
2018-02-15T22:06:00.097Z,99.90
2018-02-15T22:08:28.319Z,99.90
2018-02-15T22:10:57.552Z,99.90
2018-02-15T22:13:26.547Z,99.90
2018-02-15T22:15:55.543Z,99.90
2018-02-15T22:18:27.368Z,99.90
2018-02-15T22:20:56.732Z,99.90
2018-02-15T22:23:24.959Z,99.90
2018-02-15T22:25:54.480Z,99.90
2018-02-15T22:28:23.100Z,99.90
2018-02-15T22:30:51.333Z,99.90
2018-02-15T22:33:21.787Z,99.90
2018-02-15T22:35:50.045Z,99.90
2018-02-15T22:38:19.790Z,99.90
2018-02-15T22:40:49.044Z,99.90
2018-02-15T22:43:17.667Z,99.90
2018-02-15T22:45:45.900Z,99.90
2018-02-15T22:48:17.735Z,99.90
2018-02-15T22:50:46.364Z,99.90
2018-02-15T22:55:44.612Z,99.90
2018-02-15T22:58:13.240Z,99.90
2018-02-15T23:00:41.471Z,99.90
2018-02-15T23:03:11.353Z,99.90
2018-02-15T23:08:09.047Z,99.90
2018-02-15T23:13:08.220Z,99.90
2018-02-15T23:15:37.951Z,99.90
2018-02-15T23:18:06.392Z,99.90
2018-02-15T23:23:04.096Z,99.90
2018-02-15T23:25:32.737Z,99.90
2018-02-15T23:28:01.740Z,99.90
2018-02-15T23:33:00.832Z,99.90
2018-02-15T23:35:29.459Z,99.90
2018-02-15T23:37:58.459Z,99.90
2018-02-15T23:42:56.539Z,99.90
2018-02-15T23:45:24.767Z,99.90
2018-02-15T23:47:53.928Z,99.90
2018-02-15T23:50:22.927Z,99.90
2018-02-15T23:52:51.160Z,99.90
2018-02-15T23:55:19.848Z,99.90
2018-02-15T23:57:48.100Z,99.90
